Strona główna
METAR-TAF:

METAR-TAF

Lotnisko :

Beauvechain, Belgia

Szerokość geograficzna: 50-45N, Długość geograficzna: 004-46E, wysokość: 105 m

Aktualna obserwacja pogody

Raport powstał 34 minut temu, godzina 13:25 UTC
Wiatr 5 kt od południe
Temperatura 28°C
Wilgotność 37%
Ciśnienie 1020 hPa
Widzialność 10 km lub więcej

METAR: EBBE 241325Z AUTO 17005KT 9999 NCD 28/12 Q1020 BLU

czas: 15:59 (13:59 UTC)

Prognoza

Raport powstał 22 godziny i 18 minut temu, godzina 15:41 UTC
Prognoza ważna od 23 godzina 19 UTC do 24 godzina 07 UTC
Wiatr 8 kt od wschodnio-północny wschód
Rozproszone chmury na wysokości 24000 ft
Stopniowe zmiany
od 24 godzina 05 UTC do 24 godzina 07 UTC
Wiatr 2 kt z kierunków zmiennych
bezchmurnie

TAF: EBBE 231541Z 2319/2407 06008KT SCT240 BECMG 2405/2407 VRB02KT SKC

Obserwacja i prognoza pogody dla ponad 4000 lotnisk (raport METAR i TAF).

Dostępne stacje oznaczono żółtymi i czerwonymi punktami na mapie.

Najedź kursorem aby zobaczyć nazwę stacji.

Kliknij aby zobaczyć obserwacje i prognozy pogody.

Aby zmienić mapę: kliknij na zielony przycisk z czarnym krzyżykiem, aby powiększyć; na zielony przycisk z myślnikiem, aby pomniejszyć; na zielone strzałki, aby przejść do map sąsiednich.


METAR-TAF: